Time;durP1;ratioP1;P1;durP2;ratioP2;P2;SDS_P1;SDS_P2;PMS_P1;PMS_P2;Temp;Humidity;BMP_temperature;BMP_pressure;BME280_temperature;BME280_humidity;BME280_pressure;Samples;Min_cycle;Max_cycle;Signal;HPM_P1;HPM_P2
2024/04/11 00:01:42;;;;;;;6.53;3.53;;;7.10;98.00;;;;;;5432019;26;21011;-65
2024/04/11 00:04:13;;;;;;;7.27;3.37;;;7.00;98.00;;;;;;5413670;26;20478;-65
2024/04/11 00:06:42;;;;;;;7.83;3.63;;;7.00;98.00;;;;;;5413382;26;20465;-65
2024/04/11 00:09:08;;;;;;;6.30;3.60;;;6.90;98.00;;;;;;5413402;26;20519;-65
2024/04/11 00:11:37;;;;;;;7.43;4.00;;;6.90;98.00;;;;;;5413222;26;20510;-65
2024/04/11 00:14:03;;;;;;;6.40;3.47;;;6.90;98.00;;;;;;5413326;26;20531;-65
2024/04/11 00:16:32;;;;;;;4.70;3.27;;;6.90;98.00;;;;;;5413185;26;20463;-65
2024/04/11 00:18:59;;;;;;;5.70;3.30;;;7.00;98.00;;;;;;5413275;26;20463;-65
2024/04/11 00:21:31;;;;;;;10.13;3.47;;;6.80;98.00;;;;;;5411418;26;20458;-65
2024/04/11 00:23:57;;;;;;;9.27;3.63;;;6.70;98.00;;;;;;5413282;26;21139;-65
2024/04/11 00:26:26;;;;;;;4.97;3.40;;;6.70;98.00;;;;;;5413147;26;20497;-65
2024/04/11 00:28:55;;;;;;;5.57;3.03;;;6.90;98.00;;;;;;5413249;26;20467;-65
2024/04/11 00:31:26;;;;;;;5.73;3.20;;;6.90;98.00;;;;;;5413514;26;20876;-65
2024/04/11 00:33:55;;;;;;;8.10;3.40;;;7.10;98.00;;;;;;5413252;26;20503;-65
2024/04/11 00:36:24;;;;;;;6.87;2.97;;;7.10;98.00;;;;;;5412729;26;20503;-64
2024/04/11 00:38:53;;;;;;;4.80;3.30;;;7.00;98.00;;;;;;5413007;26;20462;-66
2024/04/11 00:41:21;;;;;;;6.60;3.20;;;7.00;98.00;;;;;;5413204;26;20461;-65
2024/04/11 00:43:48;;;;;;;6.03;3.30;;;6.90;98.00;;;;;;5413258;26;20518;-65
2024/04/11 00:46:17;;;;;;;6.50;3.20;;;6.70;98.00;;;;;;5413190;26;20785;-65
2024/04/11 00:48:43;;;;;;;8.83;3.10;;;6.60;98.00;;;;;;5415843;26;20465;-65
2024/04/11 00:51:13;;;;;;;4.97;2.97;;;6.60;98.00;;;;;;5416778;26;20526;-65
2024/04/11 00:53:40;;;;;;;5.80;2.97;;;6.60;98.00;;;;;;5416629;26;20593;-65
2024/04/11 00:56:14;;;;;;;5.50;3.00;;;6.60;98.00;;;;;;5416484;26;20513;-65
2024/04/11 00:58:41;;;;;;;6.30;2.70;;;6.40;98.00;;;;;;5416459;26;20454;-65
2024/04/11 01:01:09;;;;;;;4.43;2.93;;;6.40;98.00;;;;;;5414617;26;20474;-65
2024/04/11 01:03:36;;;;;;;5.10;3.20;;;6.40;98.00;;;;;;5416032;26;20469;-65
2024/04/11 01:06:05;;;;;;;6.57;3.03;;;6.40;98.00;;;;;;5416187;26;20570;-65
2024/04/11 01:08:31;;;;;;;5.93;3.17;;;6.30;98.00;;;;;;5415972;26;20469;-65
2024/04/11 01:11:00;;;;;;;6.27;3.17;;;6.30;98.00;;;;;;5416034;26;20571;-65
2024/04/11 01:13:29;;;;;;;4.83;2.70;;;6.40;98.00;;;;;;5416229;26;20467;-64
2024/04/11 01:15:59;;;;;;;7.40;3.00;;;6.50;98.00;;;;;;5415845;26;20604;-65
2024/04/11 01:18:25;;;;;;;7.10;3.23;;;6.40;98.00;;;;;;5416378;26;20465;-65
2024/04/11 01:20:54;;;;;;;5.47;3.33;;;6.30;98.00;;;;;;5415778;26;20509;-65
2024/04/11 01:23:23;;;;;;;5.03;2.77;;;6.30;98.00;;;;;;5415870;26;20467;-65
2024/04/11 01:25:52;;;;;;;6.03;3.47;;;6.20;98.00;;;;;;5415674;26;20466;-64
2024/04/11 01:28:18;;;;;;;5.53;3.13;;;6.10;98.00;;;;;;5414145;26;20915;-65
2024/04/11 01:30:47;;;;;;;5.00;2.83;;;6.10;98.00;;;;;;5415744;26;20470;-65
2024/04/11 01:33:14;;;;;;;8.20;3.20;;;6.20;98.00;;;;;;5413687;26;20843;-65
2024/04/11 01:35:46;;;;;;;5.67;3.00;;;6.30;98.00;;;;;;5413857;26;20570;-65
2024/04/11 01:38:12;;;;;;;8.50;3.33;;;6.30;98.00;;;;;;5415882;26;20469;-65
2024/04/11 01:40:48;;;;;;;7.17;3.33;;;6.50;98.00;;;;;;5433586;26;20524;-65
2024/04/11 01:43:14;;;;;;;5.43;3.13;;;6.70;98.00;;;;;;5450326;26;20505;-65
2024/04/11 01:45:43;;;;;;;5.93;2.70;;;6.80;98.00;;;;;;5450472;26;20524;-65
2024/04/11 01:48:09;;;;;;;7.90;2.93;;;6.80;98.00;;;;;;5449695;26;20450;-65
2024/04/11 01:50:41;;;;;;;5.20;2.77;;;6.70;98.00;;;;;;5451371;26;20593;-65
2024/04/11 01:53:07;;;;;;;7.23;3.20;;;6.70;98.00;;;;;;5451455;26;20511;-65
2024/04/11 01:55:36;;;;;;;7.37;3.10;;;6.60;98.00;;;;;;5451336;26;20472;-65
2024/04/11 01:58:05;;;;;;;10.03;3.33;;;6.50;98.00;;;;;;5450671;26;20508;-65
2024/04/11 02:00:38;;;;;;;5.93;3.23;;;6.30;98.00;;;;;;5451481;26;20519;-65
2024/04/11 02:03:05;;;;;;;5.50;3.40;;;6.00;98.00;;;;;;5451097;26;21052;-65
2024/04/11 02:05:34;;;;;;;7.53;3.40;;;5.90;98.00;;;;;;5449420;26;20464;-65
2024/04/11 02:08:01;;;;;;;7.53;3.20;;;5.80;98.00;;;;;;5449552;26;20992;-65
2024/04/11 02:10:31;;;;;;;7.77;3.47;;;5.70;98.00;;;;;;5451231;26;20466;-64
2024/04/11 02:12:57;;;;;;;8.90;3.90;;;5.60;98.00;;;;;;5449233;26;20504;-65
2024/04/11 02:15:29;;;;;;;5.40;3.10;;;5.50;98.00;;;;;;5451466;26;20472;-64
2024/04/11 02:17:55;;;;;;;8.97;3.70;;;5.50;98.00;;;;;;5451027;26;20513;-65
2024/04/11 02:20:24;;;;;;;7.73;3.90;;;5.60;98.00;;;;;;5451318;26;20459;-64
2024/04/11 02:22:53;;;;;;;5.40;3.37;;;5.70;98.00;;;;;;5451082;26;20473;-64
2024/04/11 02:25:22;;;;;;;5.93;3.60;;;5.60;98.00;;;;;;5450588;26;20520;-65
2024/04/11 02:27:48;;;;;;;7.30;3.93;;;5.50;98.00;;;;;;5451112;26;20468;-65
2024/04/11 02:30:17;;;;;;;7.77;3.80;;;5.60;98.00;;;;;;5451072;26;20471;-65
2024/04/11 02:32:49;;;;;;;9.00;3.90;;;5.90;98.00;;;;;;5451137;26;20522;-65
2024/04/11 02:35:18;;;;;;;7.03;3.60;;;5.80;98.00;;;;;;5450952;26;20467;-65
2024/04/11 02:37:44;;;;;;;9.20;3.90;;;5.70;98.00;;;;;;5450627;26;20460;-65
2024/04/11 02:40:13;;;;;;;5.73;3.27;;;5.80;98.00;;;;;;5451000;26;20539;-65
2024/04/11 02:42:39;;;;;;;5.87;3.73;;;5.90;98.00;;;;;;5450752;26;20984;-65
2024/04/11 02:45:14;;;;;;;5.40;3.13;;;5.70;98.00;;;;;;5450362;26;20553;-65
2024/04/11 02:47:41;;;;;;;4.50;3.30;;;5.90;98.00;;;;;;5450055;26;20459;-65
2024/04/11 02:50:15;;;;;;;10.00;3.80;;;6.00;98.00;;;;;;5448769;26;20512;-65
2024/04/11 02:52:41;;;;;;;5.67;3.10;;;6.10;98.00;;;;;;5450395;26;20473;-64
2024/04/11 02:55:10;;;;;;;4.20;2.90;;;5.80;98.00;;;;;;5450758;26;20582;-65
2024/04/11 02:57:37;;;;;;;8.00;3.60;;;5.70;98.00;;;;;;5450588;26;20842;-65
2024/04/11 03:00:06;;;;;;;5.60;3.33;;;5.70;98.00;;;;;;5448983;26;20538;-65
2024/04/11 03:02:33;;;;;;;9.50;3.87;;;5.60;98.00;;;;;;5450055;26;20462;-65
2024/04/11 03:05:03;;;;;;;5.30;3.20;;;5.60;98.00;;;;;;5450870;26;20468;-65
2024/04/11 03:07:33;;;;;;;5.20;3.23;;;5.50;98.00;;;;;;5450233;26;20502;-64
2024/04/11 03:10:01;;;;;;;5.40;3.10;;;5.50;98.00;;;;;;5449183;26;20572;-64
2024/04/11 03:12:28;;;;;;;4.83;3.10;;;5.40;98.00;;;;;;5450354;26;20465;-64
2024/04/11 03:14:57;;;;;;;5.73;3.30;;;5.50;98.00;;;;;;5450059;26;20466;-65
2024/04/11 03:17:23;;;;;;;4.87;3.17;;;5.50;98.00;;;;;;5449897;26;21016;-65
2024/04/11 03:19:52;;;;;;;4.23;3.10;;;5.30;98.00;;;;;;5450092;26;20446;-65
2024/04/11 03:22:18;;;;;;;9.20;3.40;;;5.50;98.00;;;;;;5449720;26;20468;-64
2024/04/11 03:24:49;;;;;;;7.10;3.40;;;5.50;98.00;;;;;;5449791;26;20559;-64
2024/04/11 03:27:16;;;;;;;7.27;3.43;;;5.40;98.00;;;;;;5450166;26;20511;-65
2024/04/11 03:29:45;;;;;;;5.37;3.07;;;5.40;98.00;;;;;;5449705;26;20479;-65
2024/04/11 03:32:11;;;;;;;6.20;3.13;;;5.50;98.00;;;;;;5449864;26;20457;-65
2024/04/11 03:34:41;;;;;;;7.47;3.40;;;5.50;98.00;;;;;;5449975;26;20530;-65
2024/04/11 03:37:09;;;;;;;11.77;3.73;;;5.30;98.00;;;;;;5449819;26;20466;-65
2024/04/11 03:39:38;;;;;;;9.07;3.90;;;5.30;98.00;;;;;;5449999;26;20476;-65
2024/04/11 03:42:10;;;;;;;8.03;4.00;;;5.40;98.00;;;;;;5449573;26;20510;-65
2024/04/11 03:44:42;;;;;;;5.77;3.53;;;5.50;98.00;;;;;;5449615;26;20461;-65
2024/04/11 03:47:11;;;;;;;4.70;3.37;;;5.30;98.00;;;;;;5449525;26;20501;-65
2024/04/11 03:49:37;;;;;;;9.60;3.67;;;5.40;98.00;;;;;;5449343;26;21181;-65
2024/04/11 03:52:08;;;;;;;5.47;3.50;;;5.30;98.00;;;;;;5449199;26;20463;-64
2024/04/11 03:54:34;;;;;;;6.87;3.53;;;5.10;98.00;;;;;;5449827;26;20527;-65
2024/04/11 03:57:04;;;;;;;7.43;3.60;;;5.10;98.00;;;;;;5449472;26;20574;-65
2024/04/11 03:59:33;;;;;;;6.97;3.40;;;5.00;98.00;;;;;;5449585;26;20504;-64
2024/04/11 04:02:01;;;;;;;7.30;3.50;;;5.00;98.00;;;;;;5449507;26;20465;-65
2024/04/11 04:04:28;;;;;;;5.90;3.50;;;5.00;98.00;;;;;;5449804;26;20978;-65
2024/04/11 04:06:57;;;;;;;5.53;3.50;;;5.10;98.00;;;;;;5449000;26;20472;-65
2024/04/11 04:09:25;;;;;;;7.53;3.47;;;5.00;98.00;;;;;;5449339;26;20497;-65
2024/04/11 04:11:54;;;;;;;7.20;3.53;;;5.00;98.00;;;;;;5447726;26;20511;-65
2024/04/11 04:14:20;;;;;;;9.40;3.60;;;5.00;98.00;;;;;;5449874;26;20457;-65
2024/04/11 04:16:51;;;;;;;7.50;3.40;;;5.10;98.00;;;;;;5447484;26;20806;-65
2024/04/11 04:19:18;;;;;;;7.77;3.10;;;5.20;98.00;;;;;;5449178;26;20512;-65
2024/04/11 04:21:47;;;;;;;8.80;3.50;;;5.20;98.00;;;;;;5450360;26;20513;-65
2024/04/11 04:24:13;;;;;;;5.77;3.37;;;5.40;98.00;;;;;;5452977;26;21266;-65
2024/04/11 04:26:42;;;;;;;7.97;4.03;;;5.50;98.00;;;;;;5453289;26;20466;-65
2024/04/11 04:29:09;;;;;;;10.47;4.17;;;5.40;98.00;;;;;;5452843;26;21015;-65
2024/04/11 04:31:38;;;;;;;8.80;4.37;;;5.50;98.00;;;;;;5452721;26;20553;-64
2024/04/11 04:34:09;;;;;;;8.27;3.90;;;5.30;98.00;;;;;;5450865;26;20462;-65
2024/04/11 04:36:43;;;;;;;7.40;3.97;;;5.20;98.00;;;;;;5452509;26;20452;-64
2024/04/11 04:39:13;;;;;;;9.80;4.10;;;5.10;98.00;;;;;;5452381;26;20472;-64
2024/04/11 04:41:42;;;;;;;8.77;3.93;;;4.90;98.00;;;;;;5451622;26;20467;-64
2024/04/11 04:44:08;;;;;;;8.17;3.87;;;4.80;98.00;;;;;;5451682;26;20517;-64
2024/04/11 04:46:43;;;;;;;8.00;4.10;;;4.70;98.00;;;;;;5451872;26;20836;-64
2024/04/11 04:49:12;;;;;;;7.63;3.40;;;4.80;98.00;;;;;;5451886;26;20818;-64
2024/04/11 04:51:41;;;;;;;8.67;3.70;;;4.90;98.00;;;;;;5451571;26;20478;-65
2024/04/11 04:54:11;;;;;;;7.80;3.93;;;4.90;98.00;;;;;;5450204;26;20528;-65
2024/04/11 04:56:41;;;;;;;7.50;3.83;;;4.90;98.00;;;;;;5451641;26;20462;-64
2024/04/11 04:59:08;;;;;;;8.67;3.47;;;4.80;98.00;;;;;;5450102;26;20457;-65
2024/04/11 05:01:36;;;;;;;6.30;3.73;;;4.70;98.00;;;;;;5452000;26;20451;-65
2024/04/11 05:04:03;;;;;;;12.80;4.33;;;4.70;98.00;;;;;;5452061;26;20517;-64
2024/04/11 05:06:35;;;;;;;9.33;4.30;;;4.70;98.00;;;;;;5451617;26;20661;-64
2024/04/11 05:09:02;;;;;;;10.40;4.10;;;4.80;98.00;;;;;;5451614;26;20462;-64
2024/04/11 05:11:32;;;;;;;8.50;3.90;;;5.00;98.00;;;;;;5451565;26;20497;-65
2024/04/11 05:13:58;;;;;;;7.20;3.90;;;5.00;98.00;;;;;;5452925;26;20466;-65
2024/04/11 05:16:28;;;;;;;7.27;4.17;;;5.00;98.00;;;;;;5452855;26;20875;-64
2024/04/11 05:18:54;;;;;;;7.63;3.80;;;5.10;98.00;;;;;;5451180;26;20500;-64
2024/04/11 05:21:26;;;;;;;7.33;4.07;;;5.10;98.00;;;;;;5452583;26;21079;-65
2024/04/11 05:23:56;;;;;;;12.03;4.53;;;5.10;98.00;;;;;;5451358;26;20506;-64
2024/04/11 05:26:25;;;;;;;12.57;5.60;;;5.10;98.00;;;;;;5452719;26;20466;-64
2024/04/11 05:28:52;;;;;;;16.60;7.70;;;5.20;98.00;;;;;;5452614;26;20463;-64
2024/04/11 05:31:25;;;;;;;14.40;5.70;;;5.10;98.00;;;;;;5452566;26;20467;-65
2024/04/11 05:33:53;;;;;;;6.93;3.80;;;5.20;98.00;;;;;;5451725;26;20450;-64
2024/04/11 05:36:25;;;;;;;10.27;4.30;;;5.20;98.00;;;;;;5452585;26;20499;-64
2024/04/11 05:38:52;;;;;;;12.60;4.60;;;5.30;98.00;;;;;;5452685;26;20464;-64
2024/04/11 05:41:24;;;;;;;8.20;4.47;;;5.40;98.00;;;;;;5452329;26;20470;-65
2024/04/11 05:43:52;;;;;;;17.40;8.03;;;5.50;98.00;;;;;;5452622;26;20509;-64
2024/04/11 05:46:22;;;;;;;16.30;8.20;;;5.60;98.00;;;;;;5452380;26;20479;-64
2024/04/11 05:48:49;;;;;;;11.73;5.87;;;5.70;98.00;;;;;;5452520;26;20503;-64
2024/04/11 05:51:18;;;;;;;16.57;7.43;;;5.90;98.00;;;;;;5450665;26;20525;-65
2024/04/11 05:53:46;;;;;;;14.80;7.17;;;5.90;98.00;;;;;;5452329;26;21025;-64
2024/04/11 05:56:15;;;;;;;10.23;5.87;;;5.80;98.00;;;;;;5452340;26;20556;-64
2024/04/11 05:58:45;;;;;;;11.27;5.87;;;5.70;98.00;;;;;;5452217;26;20508;-63
2024/04/11 06:01:16;;;;;;;13.13;6.00;;;5.70;98.00;;;;;;5452341;26;20476;-63
2024/04/11 06:03:50;;;;;;;10.43;5.60;;;5.70;98.00;;;;;;5452473;26;20462;-63
2024/04/11 06:06:19;;;;;;;9.47;5.43;;;5.70;98.00;;;;;;5452209;26;20449;-63
2024/04/11 06:08:50;;;;;;;10.60;4.73;;;6.00;98.00;;;;;;5452234;26;20868;-63
2024/04/11 06:11:17;;;;;;;7.43;4.20;;;6.10;98.00;;;;;;5452336;26;20605;-63
2024/04/11 06:13:49;;;;;;;10.23;4.50;;;6.20;98.00;;;;;;5452794;26;20462;-63
2024/04/11 06:16:16;;;;;;;12.90;4.60;;;6.30;98.00;;;;;;5452808;26;20506;-63
2024/04/11 06:18:48;;;;;;;12.10;4.87;;;6.30;98.00;;;;;;5452609;26;20467;-63
2024/04/11 06:21:18;;;;;;;9.97;4.57;;;6.40;98.00;;;;;;5451915;26;21020;-63
2024/04/11 06:23:47;;;;;;;9.83;5.00;;;6.50;98.00;;;;;;5451957;26;20462;-63
2024/04/11 06:26:16;;;;;;;9.53;5.03;;;6.70;98.00;;;;;;5451832;26;20457;-63
2024/04/11 06:28:49;;;;;;;11.60;4.80;;;6.80;98.00;;;;;;5451960;26;20540;-63
2024/04/11 06:31:17;;;;;;;10.70;4.67;;;6.80;98.00;;;;;;5452030;26;20525;-62
2024/04/11 06:33:46;;;;;;;7.40;4.20;;;7.00;98.00;;;;;;5450105;26;20470;-63
2024/04/11 06:36:17;;;;;;;10.43;5.07;;;7.10;98.00;;;;;;5451839;26;20962;-63
2024/04/11 06:38:46;;;;;;;10.10;4.40;;;7.10;98.00;;;;;;5449411;26;20521;-63
2024/04/11 06:41:18;;;;;;;8.90;4.23;;;7.20;98.00;;;;;;5451385;26;20977;-63
2024/04/11 06:43:50;;;;;;;9.03;4.50;;;7.40;98.00;;;;;;5451669;26;20517;-63
2024/04/11 06:46:17;;;;;;;8.67;4.20;;;7.40;98.00;;;;;;5451486;26;20477;-63
2024/04/11 06:48:46;;;;;;;9.40;4.83;;;7.40;98.00;;;;;;5451589;26;20473;-63
2024/04/11 06:51:15;;;;;;;10.67;4.80;;;7.40;98.00;;;;;;5451042;26;20931;-63
2024/04/11 06:53:46;;;;;;;5.60;4.10;;;7.40;98.00;;;;;;5451608;26;20540;-63
2024/04/11 06:56:17;;;;;;;12.50;4.80;;;7.40;98.00;;;;;;5451792;26;20569;-63
2024/04/11 06:58:47;;;;;;;9.30;4.50;;;7.60;98.00;;;;;;5451246;26;20463;-63
2024/04/11 07:01:16;;;;;;;9.17;4.73;;;7.80;98.00;;;;;;5451073;26;20468;-63
2024/04/11 07:03:49;;;;;;;11.23;4.80;;;7.90;98.00;;;;;;5450094;26;20524;-63
2024/04/11 07:06:21;;;;;;;8.97;5.10;;;8.10;98.00;;;;;;5450765;26;21248;-63
2024/04/11 07:08:52;;;;;;;10.30;4.90;;;7.90;98.00;;;;;;5451194;26;20472;-63
2024/04/11 07:11:19;;;;;;;11.53;5.30;;;8.00;98.00;;;;;;5451129;26;21309;-63
2024/04/11 07:13:48;;;;;;;9.33;4.77;;;8.00;98.00;;;;;;5451356;26;20522;-63
2024/04/11 07:16:20;;;;;;;14.00;4.50;;;8.20;98.00;;;;;;5451212;26;20959;-63
2024/04/11 07:18:54;;;;;;;8.67;4.57;;;8.40;98.00;;;;;;5451025;26;21045;-63
2024/04/11 07:21:25;;;;;;;8.20;4.83;;;8.60;98.00;;;;;;5451390;26;20511;-63
2024/04/11 07:23:57;;;;;;;9.37;4.13;;;8.60;98.00;;;;;;5450764;26;20573;-63
2024/04/11 07:26:29;;;;;;;7.17;4.10;;;8.80;98.00;;;;;;5450795;26;20501;-63
2024/04/11 07:28:59;;;;;;;9.80;4.90;;;8.90;98.00;;;;;;5450849;26;20507;-63
2024/04/11 07:31:28;;;;;;;9.57;4.97;;;9.10;98.00;;;;;;5451048;26;20450;-63
2024/04/11 07:33:59;;;;;;;11.20;5.07;;;9.30;98.00;;;;;;5450811;26;20972;-63
2024/04/11 07:36:25;;;;;;;12.60;3.70;;;9.50;98.00;;;;;;5450847;26;20459;-63
2024/04/11 07:38:57;;;;;;;12.53;4.40;;;9.60;98.00;;;;;;5443907;26;20495;-63
2024/04/11 07:41:28;;;;;;;7.50;4.10;;;9.70;98.00;;;;;;5414289;26;20515;-63
2024/04/11 07:43:55;;;;;;;11.07;4.57;;;9.90;98.00;;;;;;5413581;26;20549;-63
2024/04/11 07:46:28;;;;;;;11.87;4.63;;;9.90;98.00;;;;;;5413219;26;20570;-63
2024/04/11 07:48:58;;;;;;;8.27;4.73;;;10.00;98.00;;;;;;5413733;26;20463;-63
2024/04/11 07:51:27;;;;;;;9.73;4.40;;;10.10;98.00;;;;;;5414891;26;20461;-63
2024/04/11 07:53:54;;;;;;;13.37;4.77;;;10.30;98.00;;;;;;5414644;26;20466;-63
2024/04/11 07:56:27;;;;;;;8.10;4.63;;;10.50;98.00;;;;;;5412521;26;20471;-63
2024/04/11 07:58:55;;;;;;;9.10;4.67;;;10.60;98.00;;;;;;5444143;26;20525;-63
2024/04/11 08:01:30;;;;;;;13.53;4.80;;;10.70;98.00;;;;;;5448793;26;20999;-63
2024/04/11 08:04:01;;;;;;;8.00;4.40;;;10.80;98.00;;;;;;5448978;26;20515;-63
2024/04/11 08:06:31;;;;;;;7.93;4.30;;;11.00;98.00;;;;;;5448468;26;20524;-63
2024/04/11 08:09:06;;;;;;;6.93;3.93;;;11.10;98.00;;;;;;5418649;26;20569;-63
2024/04/11 08:11:35;;;;;;;8.43;4.67;;;11.30;98.00;;;;;;5449560;26;20463;-63
2024/04/11 08:14:04;;;;;;;8.80;4.33;;;11.50;98.00;;;;;;5450002;26;21125;-63
2024/04/11 08:16:33;;;;;;;9.70;4.73;;;11.50;98.00;;;;;;5447660;26;20526;-63
2024/04/11 08:19:03;;;;;;;10.00;4.80;;;11.70;98.00;;;;;;5450328;26;20431;-63
2024/04/11 08:21:32;;;;;;;9.70;4.33;;;11.80;98.00;;;;;;5449991;26;20503;-62
2024/04/11 08:24:00;;;;;;;8.50;4.57;;;12.00;98.00;;;;;;5450305;26;20516;-63
2024/04/11 08:26:29;;;;;;;11.97;4.50;;;12.10;98.00;;;;;;5449885;26;20523;-63
2024/04/11 08:28:55;;;;;;;9.07;5.13;;;12.30;98.00;;;;;;5449856;26;20460;-63
2024/04/11 08:31:27;;;;;;;7.47;4.00;;;12.40;98.00;;;;;;5449380;26;20544;-63
2024/04/11 08:33:57;;;;;;;8.00;4.30;;;12.60;98.00;;;;;;5449841;26;20567;-63
2024/04/11 08:36:29;;;;;;;8.47;3.67;;;12.80;98.00;;;;;;5448436;26;20555;-63
2024/04/11 08:38:57;;;;;;;8.80;4.50;;;13.00;98.00;;;;;;5449568;26;20508;-63
2024/04/11 08:41:26;;;;;;;10.97;4.23;;;13.10;98.00;;;;;;5449586;26;20981;-63
2024/04/11 08:43:56;;;;;;;6.33;4.10;;;13.20;98.00;;;;;;5449647;26;20922;-63
2024/04/11 08:46:24;;;;;;;8.97;4.37;;;13.30;98.00;;;;;;5449415;26;20788;-63
2024/04/11 08:48:54;;;;;;;8.70;4.33;;;13.60;98.00;;;;;;5448989;26;20460;-65
2024/04/11 08:51:33;;;;;;;9.33;4.63;;;13.80;98.00;;;;;;5449264;26;20569;-63
2024/04/11 08:54:03;;;;;;;10.23;5.30;;;14.10;98.00;;;;;;5448882;26;20529;-63
2024/04/11 08:56:32;;;;;;;7.67;4.30;;;14.20;98.00;;;;;;5448214;26;20534;-63
2024/04/11 08:58:59;;;;;;;9.87;4.50;;;14.30;98.00;;;;;;5449465;26;20844;-62
2024/04/11 09:01:29;;;;;;;10.00;4.80;;;14.50;98.00;;;;;;5449318;26;20522;-63
2024/04/11 09:03:57;;;;;;;7.20;4.23;;;14.60;98.00;;;;;;5448880;26;20503;-63
2024/04/11 09:06:30;;;;;;;11.80;3.97;;;14.80;98.00;;;;;;5449277;26;20465;-63
2024/04/11 09:08:59;;;;;;;7.20;4.20;;;14.90;98.00;;;;;;5450699;26;20856;-63
2024/04/11 09:11:28;;;;;;;8.43;4.17;;;15.00;98.00;;;;;;5449808;26;20507;-63
2024/04/11 09:13:58;;;;;;;7.47;4.00;;;15.10;98.00;;;;;;5452436;26;20453;-62
2024/04/11 09:16:29;;;;;;;7.70;3.80;;;15.30;98.00;;;;;;5452810;26;21023;-63
2024/04/11 09:19:03;;;;;;;6.33;3.80;;;15.50;98.00;;;;;;5450779;26;20473;-63
2024/04/11 09:21:45;;;;;;;7.70;3.70;;;15.60;98.00;;;;;;5452721;26;20505;-63
2024/04/11 09:24:16;;;;;;;8.40;3.53;;;15.60;98.00;;;;;;5452341;26;20503;-63
2024/04/11 09:26:45;;;;;;;10.60;3.87;;;15.70;98.00;;;;;;5452707;26;20860;-63
2024/04/11 09:29:11;;;;;;;15.53;3.80;;;15.80;98.00;;;;;;5452431;26;20966;-63
2024/04/11 09:31:42;;;;;;;6.47;3.60;;;16.00;98.00;;;;;;5452718;26;20858;-62
2024/04/11 09:34:11;;;;;;;7.70;3.90;;;16.10;98.00;;;;;;5452640;26;20500;-63
2024/04/11 09:36:49;;;;;;;8.13;3.70;;;16.20;98.00;;;;;;5452190;26;21446;-63
2024/04/11 09:39:41;;;;;;;9.40;4.00;;;16.20;98.00;;;;;;5452383;26;20469;-63
2024/04/11 09:42:17;;;;;;;6.63;3.40;;;16.30;98.00;;;;;;5451013;26;20514;-63
2024/04/11 09:44:47;;;;;;;9.90;4.00;;;16.50;98.00;;;;;;5416275;26;20533;-63
2024/04/11 09:47:18;;;;;;;9.10;3.53;;;16.70;98.00;;;;;;5416570;26;20466;-63
2024/04/11 09:49:53;;;;;;;9.30;3.53;;;16.80;98.00;;;;;;5416978;26;20458;-63
2024/04/11 09:52:30;;;;;;;6.50;3.30;;;16.90;98.00;;;;;;5413786;26;20936;-63
2024/04/11 09:55:02;;;;;;;8.00;3.70;;;17.00;98.00;;;;;;5415967;26;20526;-63
2024/04/11 09:57:33;;;;;;;5.13;3.30;;;17.00;97.20;;;;;;5416101;26;20463;-63
2024/04/11 10:00:09;;;;;;;8.10;4.07;;;17.10;98.00;;;;;;5416567;26;20462;-63
2024/04/11 10:02:38;;;;;;;4.90;3.03;;;17.20;97.50;;;;;;5412895;26;20470;-63
2024/04/11 10:05:06;;;;;;;6.60;3.57;;;17.30;98.00;;;;;;5416466;26;20475;-63
2024/04/11 10:07:41;;;;;;;7.37;3.90;;;17.60;98.00;;;;;;5415396;26;20462;-63
2024/04/11 10:10:19;;;;;;;6.00;3.60;;;17.60;96.90;;;;;;5416336;26;20474;-63
2024/04/11 10:12:49;;;;;;;6.03;3.33;;;17.70;96.50;;;;;;5415839;26;20463;-63
2024/04/11 10:15:18;;;;;;;7.90;3.50;;;17.60;94.50;;;;;;5416485;26;20471;-64
2024/04/11 10:17:48;;;;;;;7.87;3.57;;;17.70;97.30;;;;;;5415989;26;20458;-63
2024/04/11 10:20:14;;;;;;;6.40;3.63;;;17.90;97.90;;;;;;5415068;26;20462;-63
2024/04/11 10:22:52;;;;;;;5.43;3.20;;;18.10;97.60;;;;;;5415823;26;20451;-63
2024/04/11 10:25:18;;;;;;;5.73;3.10;;;18.30;94.60;;;;;;5415644;26;21057;-63
2024/04/11 10:27:51;;;;;;;7.17;3.40;;;18.40;94.70;;;;;;5415856;26;20979;-63
2024/04/11 10:30:17;;;;;;;5.07;3.47;;;18.40;92.60;;;;;;5412998;26;20490;-63
2024/04/11 10:32:47;;;;;;;5.33;3.10;;;18.40;91.00;;;;;;5415639;26;20462;-64
2024/04/11 10:35:19;;;;;;;5.10;3.40;;;18.50;92.70;;;;;;5415306;26;20458;-63
2024/04/11 10:37:51;;;;;;;5.80;3.60;;;18.60;94.20;;;;;;5413200;26;20519;-63
2024/04/11 10:40:24;;;;;;;4.03;3.03;;;18.80;91.30;;;;;;5416048;26;20598;-63
2024/04/11 10:45:34;;;;;;;7.33;3.20;;;18.80;90.30;;;;;;5415021;26;20462;-63
2024/04/11 10:48:06;;;;;;;5.40;3.00;;;19.00;90.20;;;;;;5414995;26;20598;-64
2024/04/11 10:50:35;;;;;;;5.70;3.20;;;19.20;90.70;;;;;;5415349;26;20470;-63
2024/04/11 10:53:05;;;;;;;6.63;3.20;;;19.40;92.00;;;;;;5415488;26;20463;-63
2024/04/11 10:55:38;;;;;;;5.17;3.57;;;19.60;88.30;;;;;;5413817;26;20577;-63
2024/04/11 10:58:09;;;;;;;6.30;2.90;;;19.40;87.10;;;;;;5415242;26;21028;-63
2024/04/11 11:06:24;;;;;;;7.47;3.43;;;19.80;86.90;;;;;;5407225;26;20496;-63
2024/04/11 11:08:59;;;;;;;5.80;3.10;;;19.90;86.30;;;;;;5415647;26;20834;-63
2024/04/11 11:11:30;;;;;;;6.70;3.30;;;20.10;86.60;;;;;;5415502;26;20514;-64
2024/04/11 11:13:58;;;;;;;8.87;3.33;;;20.30;88.80;;;;;;5415245;26;20479;-63
2024/04/11 11:16:31;;;;;;;6.43;2.87;;;20.60;85.30;;;;;;5415436;26;20466;-63
2024/04/11 11:18:58;;;;;;;3.60;2.63;;;20.70;82.10;;;;;;5413814;26;20466;-64
2024/04/11 11:21:27;;;;;;;4.90;3.10;;;20.80;82.30;;;;;;5414571;26;20470;-64
2024/04/11 11:24:00;;;;;;;5.50;3.33;;;20.60;82.90;;;;;;5415185;26;21007;-64
2024/04/11 11:26:35;;;;;;;4.63;2.97;;;20.80;84.30;;;;;;5415190;26;21036;-64
2024/04/11 11:29:03;;;;;;;4.33;3.10;;;21.10;83.80;;;;;;5415312;26;20512;-63
2024/04/11 11:31:36;;;;;;;5.53;3.13;;;21.20;83.10;;;;;;5414189;26;20446;-63
2024/04/11 11:34:09;;;;;;;5.63;2.90;;;21.40;87.40;;;;;;5414474;26;20457;-63
2024/04/11 11:36:44;;;;;;;6.77;3.00;;;21.70;84.10;;;;;;5415138;26;20510;-64
2024/04/11 11:39:17;;;;;;;4.03;2.70;;;21.60;80.90;;;;;;5415273;26;20522;-64
2024/04/11 11:41:49;;;;;;;6.37;3.03;;;21.90;84.80;;;;;;5415075;26;20443;-64
2024/04/11 11:44:21;;;;;;;5.47;2.80;;;22.30;82.50;;;;;;5414874;26;20507;-64
2024/04/11 11:47:05;;;;;;;6.00;3.07;;;22.40;80.30;;;;;;5414951;26;20517;-64
2024/04/11 11:49:35;;;;;;;3.20;2.30;;;22.40;79.80;;;;;;5414650;26;20932;-64
2024/04/11 11:52:05;;;;;;;3.37;2.50;;;22.70;76.60;;;;;;5412655;26;20573;-64
2024/04/11 11:54:34;;;;;;;4.03;2.30;;;23.10;78.50;;;;;;5414403;26;20462;-62
2024/04/11 11:57:17;;;;;;;3.03;2.20;;;23.20;79.70;;;;;;5412755;26;20454;-62
2024/04/11 11:59:45;;;;;;;5.03;2.40;;;23.50;81.80;;;;;;5414546;26;20462;-62
2024/04/11 12:02:16;;;;;;;3.90;2.40;;;23.60;76.70;;;;;;5414258;26;20846;-63
2024/04/11 12:04:44;;;;;;;3.93;2.30;;;23.90;83.00;;;;;;5412983;26;20999;-64
2024/04/11 12:07:18;;;;;;;5.90;2.50;;;23.70;71.60;;;;;;5412517;26;20455;-65
2024/04/11 12:10:12;;;;;;;3.00;2.30;;;23.70;76.30;;;;;;5413926;26;20579;-64
2024/04/11 12:12:36;;;;;;;3.27;2.20;;;23.70;76.20;;;;;;5413807;26;20463;-64
2024/04/11 12:15:06;;;;;;;2.60;2.23;;;23.90;75.10;;;;;;5414398;26;21187;-64
2024/04/11 12:17:36;;;;;;;2.73;2.10;;;24.10;76.20;;;;;;5414158;26;20471;-64
2024/04/11 12:20:05;;;;;;;3.70;2.37;;;24.30;75.60;;;;;;5414240;26;20582;-63
2024/04/11 12:22:35;;;;;;;3.00;2.30;;;24.40;75.30;;;;;;5412125;26;20458;-63
2024/04/11 12:25:10;;;;;;;2.83;2.37;;;24.40;74.10;;;;;;5413953;26;20458;-64
2024/04/11 12:27:39;;;;;;;6.40;2.73;;;24.40;74.10;;;;;;5413794;26;20522;-64
2024/04/11 12:30:07;;;;;;;3.90;2.30;;;24.40;71.10;;;;;;5414058;26;21045;-64
2024/04/11 12:32:41;;;;;;;3.53;2.30;;;24.30;71.90;;;;;;5414056;26;20538;-64
2024/04/11 12:35:08;;;;;;;3.00;2.30;;;24.30;73.20;;;;;;5413841;26;20466;-64
2024/04/11 12:37:38;;;;;;;3.80;2.10;;;24.40;71.00;;;;;;5412949;26;20542;-64
2024/04/11 12:40:08;;;;;;;3.70;2.20;;;24.50;70.90;;;;;;5412379;26;20600;-63
2024/04/11 12:42:38;;;;;;;3.70;2.20;;;24.40;74.20;;;;;;5414662;26;21013;-63
2024/04/11 12:45:07;;;;;;;4.50;2.60;;;24.60;74.60;;;;;;5417385;26;20462;-63
2024/04/11 12:47:48;;;;;;;5.40;2.43;;;24.70;70.60;;;;;;5417498;26;21178;-64
2024/04/11 12:50:15;;;;;;;4.00;2.60;;;24.70;69.60;;;;;;5417352;26;20458;-67
2024/04/11 12:52:50;;;;;;;5.93;2.17;;;24.60;70.40;;;;;;5417255;26;20470;-63
2024/04/11 12:55:24;;;;;;;3.73;2.40;;;24.70;73.90;;;;;;5417498;26;20462;-64
2024/04/11 12:57:57;;;;;;;5.77;2.43;;;25.00;73.50;;;;;;5417656;26;20462;-63
2024/04/11 13:00:34;;;;;;;3.27;2.20;;;25.00;69.00;;;;;;5417620;26;20906;-63
2024/04/11 13:03:15;;;;;;;3.30;2.50;;;25.10;73.60;;;;;;5417030;26;20458;-63
2024/04/11 13:05:51;;;;;;;3.80;2.00;;;25.00;70.20;;;;;;5417344;26;20492;-64
2024/04/11 13:08:20;;;;;;;3.30;2.47;;;24.90;70.90;;;;;;5417069;26;20509;-64
2024/04/11 13:10:49;;;;;;;8.03;2.70;;;25.00;68.00;;;;;;5417221;26;20466;-64
2024/04/11 13:13:18;;;;;;;3.73;2.50;;;25.00;69.30;;;;;;5417055;26;20474;-64